Time;durP1;ratioP1;P1;durP2;ratioP2;P2;SDS_P1;SDS_P2;PMS_P1;PMS_P2;Temp;Humidity;BMP_temperature;BMP_pressure;BME280_temperature;BME280_humidity;BME280_pressure;Samples;Min_cycle;Max_cycle;Signal;HPM_P1;HPM_P2
2023/10/08 00:02:13;;;;;;;38.67;36.28;;;;;;;14.79;100.00;101154.81;4901684;29;20063;-93
2023/10/08 00:05:19;;;;;;;39.33;37.05;;;;;;;14.90;100.00;101148.75;4880573;29;20093;-93
2023/10/08 00:11:52;;;;;;;34.38;32.08;;;;;;;14.87;100.00;101152.69;4743492;30;20067;-92
2023/10/08 00:15:11;;;;;;;33.90;31.52;;;;;;;14.97;100.00;101170.06;4828558;29;20054;-94
2023/10/08 00:18:27;;;;;;;32.42;30.23;;;;;;;14.83;100.00;101148.81;4824227;29;20058;-93
2023/10/08 00:21:34;;;;;;;34.53;32.33;;;;;;;14.79;100.00;101141.47;4834953;29;20054;-93
2023/10/08 00:31:45;;;;;;;35.00;32.90;;;;;;;14.70;100.00;101119.53;4832661;29;20068;-93
2023/10/08 00:35:00;;;;;;;79.43;39.03;;;;;;;14.81;100.00;101110.78;4805260;29;20074;-94
2023/10/08 00:38:07;;;;;;;40.63;38.28;;;;;;;14.83;100.00;101100.69;4917356;29;21023;-94
2023/10/08 01:08:11;;;;;;;44.83;42.22;;;;;;;15.16;100.00;101094.09;4924230;29;20299;-93
2023/10/08 01:11:26;;;;;;;;;;;;;;;;;;;;;
2023/10/08 01:34:38;;;;;;;38.40;36.00;;;;;;;15.72;100.00;101102.75;4909604;29;20447;-93
2023/10/08 01:38:03;;;;;;;40.95;38.28;;;;;;;15.88;100.00;101087.88;4904941;29;20075;-94
2023/10/08 01:44:29;;;;;;;43.03;40.63;;;;;;;15.91;100.00;101074.81;4896333;29;20059;-94
2023/10/08 01:47:19;;;;;;;48.08;45.13;;;;;;;15.71;100.00;101091.25;4853735;29;20136;-93
2023/10/08 02:00:11;;;;;;;42.08;39.47;;;;;;;16.60;100.00;101052.72;4884430;29;20062;-93
2023/10/08 02:10:00;;;;;;;40.38;38.15;;;;;;;16.51;100.00;101067.56;4904799;29;20266;-94
2023/10/08 02:12:58;;;;;;;40.00;37.70;;;;;;;16.37;100.00;101049.06;4929129;28;20055;-93
2023/10/08 02:19:11;;;;;;;35.85;33.95;;;;;;;16.19;100.00;101058.06;4927401;28;20055;-92
2023/10/08 02:25:28;;;;;;;34.90;32.80;;;;;;;16.30;100.00;101043.00;4953649;28;19945;-93
2023/10/08 02:41:38;;;;;;;;;;;;;;;16.00;100.00;101052.00;4926820;28;20063;-93
2023/10/08 02:47:42;;;;;;;37.78;35.60;;;;;;;16.30;100.00;101026.91;4906670;29;20056;-94
2023/10/08 02:50:45;;;;;;;34.25;32.22;;;;;;;15.82;100.00;101033.38;4959019;28;20442;-93
2023/10/08 02:56:58;;;;;;;38.88;36.53;;;;;;;16.36;100.00;101017.13;4955074;28;20063;-93
2023/10/08 03:00:11;;;;;;;35.55;33.15;;;;;;;15.93;100.00;101013.81;4908691;29;20052;-93
2023/10/08 03:12:42;;;;;;;35.08;32.58;;;;;;;17.39;100.00;101026.84;4957385;28;20055;-93
2023/10/08 03:16:06;;;;;;;51.15;48.05;;;;;;;15.95;100.00;101029.66;4908037;29;20059;-93
2023/10/08 03:28:27;;;;;;;41.00;38.50;;;;;;;16.14;100.00;101047.22;4935259;28;20058;-93
2023/10/08 03:35:27;;;;;;;38.85;36.45;;;;;;;16.40;100.00;101023.63;4921945;29;20713;-92
2023/10/08 03:38:49;;;;;;;41.60;38.67;;;;;;;15.95;100.00;101035.84;4865778;29;20738;-93
2023/10/08 03:44:37;;;;;;;36.55;34.60;;;;;;;15.16;100.00;101039.75;4898870;28;20071;-93
2023/10/08 03:47:32;;;;;;;34.00;31.55;;;;;;;14.87;100.00;101040.38;4936521;29;20534;-92
2023/10/08 03:50:40;;;;;;;36.60;34.40;;;;;;;15.19;100.00;101034.78;4940338;29;20791;-93
2023/10/08 03:57:13;;;;;;;38.20;35.70;;;;;;;15.09;100.00;101018.44;4939841;28;20578;-93
2023/10/08 04:03:23;;;;;;;31.15;29.15;;;;;;;14.94;100.00;101026.88;4939728;29;20087;-93
2023/10/08 04:06:54;;;;;;;35.15;32.95;;;;;;;14.97;100.00;101015.75;4946248;28;20051;-93
2023/10/08 04:13:30;;;;;;;;;;;;;;;;;;;;;
2023/10/08 04:17:09;;;;;;;33.10;30.15;;;;;;;15.76;100.00;101010.19;4848612;29;20053;-94
2023/10/08 04:26:32;;;;;;;29.20;27.10;;;;;;;15.30;100.00;101006.41;4942252;28;20130;-92
2023/10/08 04:33:12;;;;;;;26.55;24.55;;;;;;;15.46;100.00;100999.56;4938288;28;20046;-93
2023/10/08 04:36:29;;;;;;;27.17;25.17;;;;;;;15.14;100.00;100996.38;4940664;29;20145;-93
2023/10/08 04:39:31;;;;;;;26.10;24.20;;;;;;;15.20;100.00;101019.53;4943024;29;20142;-93
2023/10/08 04:49:45;;;;;;;25.17;23.27;;;;;;;15.44;100.00;101015.88;4930202;28;20058;-93
2023/10/08 04:55:50;;;;;;;25.75;23.75;;;;;;;15.95;100.00;101038.50;4948206;29;20858;-93
2023/10/08 05:14:16;;;;;;;24.50;22.60;;;;;;;15.70;100.00;101020.00;4953736;28;20538;-93
2023/10/08 05:20:17;;;;;;;24.20;22.38;;;;;;;16.22;100.00;101030.81;4947914;28;20043;-93
2023/10/08 05:24:27;;;;;;;26.08;24.08;;;;;;;17.04;100.00;101034.31;4874373;29;20109;-93
2023/10/08 05:37:32;;;;;;;25.50;23.63;;;;;;;16.97;100.00;101031.75;4919883;29;20051;-93
2023/10/08 05:40:12;;;;;;;25.10;23.20;;;;;;;17.03;100.00;101027.28;4958182;28;20059;-93
2023/10/08 05:43:00;;;;;;;26.08;24.27;;;;;;;17.76;100.00;101029.03;4957575;28;20474;-93
2023/10/08 05:45:29;;;;;;;25.90;24.10;;;;;;;17.48;100.00;101042.56;4952595;28;20074;-92
2023/10/08 05:48:13;;;;;;;27.05;25.05;;;;;;;17.08;100.00;101028.19;4950245;29;20145;-91
2023/10/08 05:50:42;;;;;;;25.98;23.98;;;;;;;18.06;100.00;101044.00;4950924;28;20070;-91
2023/10/08 05:53:29;;;;;;;24.92;23.10;;;;;;;18.36;100.00;101027.44;4950804;28;20578;-90
2023/10/08 05:56:16;;;;;;;26.77;24.88;;;;;;;17.58;100.00;101037.38;4951996;29;20052;-90
2023/10/08 05:59:00;;;;;;;27.35;25.25;;;;;;;17.27;100.00;101042.19;4940990;29;20357;-91
2023/10/08 06:01:39;;;;;;;26.05;24.25;;;;;;;18.16;100.00;101044.16;4942561;29;20106;-91
2023/10/08 06:04:20;;;;;;;27.77;25.88;;;;;;;17.38;100.00;101038.63;4945341;29;20539;-90
2023/10/08 06:06:57;;;;;;;27.02;24.92;;;;;;;18.02;100.00;101032.94;4944532;29;20043;-90
2023/10/08 06:09:35;;;;;;;27.85;25.67;;;;;;;17.90;100.00;101031.41;4947308;29;20432;-91
2023/10/08 06:12:10;;;;;;;27.02;25.02;;;;;;;18.20;100.00;101029.13;4945777;29;20503;-91
2023/10/08 06:15:07;;;;;;;25.85;23.65;;;;;;;17.89;100.00;101027.91;4941791;29;20051;-91
2023/10/08 06:20:25;;;;;;;27.35;25.25;;;;;;;18.44;100.00;101015.44;4939330;28;20051;-91
2023/10/08 06:22:55;;;;;;;27.73;25.63;;;;;;;18.89;100.00;101001.72;4947914;29;20083;-91
2023/10/08 06:25:24;;;;;;;27.42;25.20;;;;;;;18.42;100.00;101010.31;4947705;29;20047;-91
2023/10/08 06:27:55;;;;;;;27.55;25.45;;;;;;;18.78;100.00;101013.44;4943992;29;20047;-91
2023/10/08 06:30:24;;;;;;;27.70;25.50;;;;;;;18.68;100.00;101018.69;4943844;29;20055;-91
2023/10/08 06:32:53;;;;;;;27.60;25.52;;;;;;;18.22;100.00;101010.91;4947572;29;20138;-92
2023/10/08 06:35:26;;;;;;;27.70;25.60;;;;;;;18.64;100.00;101015.69;4944781;29;20058;-91
2023/10/08 06:37:55;;;;;;;26.98;24.67;;;;;;;19.56;100.00;101004.97;4945749;29;20051;-90
2023/10/08 06:43:24;;;;;;;27.60;25.23;;;;;;;18.72;100.00;101000.97;4904234;29;20056;-91
2023/10/08 06:45:53;;;;;;;25.88;23.77;;;;;;;18.97;100.00;100992.34;4938666;28;20047;-92
2023/10/08 06:48:21;;;;;;;25.98;23.67;;;;;;;19.00;100.00;100999.91;4942698;29;20134;-94
2023/10/08 06:50:56;;;;;;;24.98;23.08;;;;;;;19.28;100.00;101001.53;4942204;29;20047;-92
2023/10/08 06:53:24;;;;;;;26.98;24.98;;;;;;;20.00;100.00;100999.31;4945069;29;20078;-96
2023/10/08 06:55:56;;;;;;;26.23;24.10;;;;;;;19.28;100.00;100995.34;4942492;29;20054;-92
2023/10/08 06:58:23;;;;;;;25.27;23.15;;;;;;;19.82;100.00;100993.31;4949662;29;20479;-92
2023/10/08 07:00:50;;;;;;;23.58;21.67;;;;;;;19.82;100.00;100987.94;4943798;29;20039;-91
2023/10/08 07:03:20;;;;;;;27.45;25.00;;;;;;;20.04;100.00;100989.66;4948310;28;20063;-90
2023/10/08 07:05:57;;;;;;;26.80;24.70;;;;;;;20.12;100.00;100979.19;4947674;29;20496;-91
2023/10/08 07:08:25;;;;;;;34.97;23.70;;;;;;;20.14;100.00;100978.91;4945066;29;20048;-92
2023/10/08 07:10:53;;;;;;;27.13;24.92;;;;;;;19.60;100.00;100982.63;4947301;28;20393;-91
2023/10/08 07:13:22;;;;;;;25.42;23.45;;;;;;;19.97;100.00;100971.03;4948224;29;20527;-91
2023/10/08 07:15:50;;;;;;;24.52;22.63;;;;;;;20.55;100.00;100962.91;4949202;29;20708;-92
2023/10/08 07:18:24;;;;;;;25.83;23.83;;;;;;;20.02;100.00;100962.94;4946049;29;20060;-92
2023/10/08 07:20:54;;;;;;;27.05;24.75;;;;;;;20.76;99.76;100963.75;4944367;29;20043;-90
2023/10/08 07:23:24;;;;;;;25.75;23.67;;;;;;;21.04;100.00;100952.44;4941901;29;20047;-91
2023/10/08 07:25:58;;;;;;;26.50;24.50;;;;;;;21.56;100.00;100955.91;4949854;29;20058;-91
2023/10/08 07:28:26;;;;;;;26.88;24.77;;;;;;;21.25;87.90;100953.25;4949630;29;20044;-92
2023/10/08 07:30:54;;;;;;;47.00;35.17;;;;;;;20.83;99.82;100945.41;4942078;29;20051;-91
2023/10/08 07:33:24;;;;;;;26.85;24.65;;;;;;;20.72;94.03;100927.56;4940385;29;20133;-88
2023/10/08 07:35:57;;;;;;;27.35;25.13;;;;;;;21.14;97.11;100923.81;4946174;28;20094;-91
2023/10/08 07:38:27;;;;;;;27.20;25.10;;;;;;;21.24;94.27;100923.78;4945577;28;20065;-89
2023/10/08 07:40:55;;;;;;;28.15;26.05;;;;;;;20.92;88.63;100924.09;4940773;28;20055;-89
2023/10/08 07:43:22;;;;;;;28.45;26.35;;;;;;;21.24;96.99;100919.22;4947117;29;20055;-90
2023/10/08 07:45:49;;;;;;;27.00;24.90;;;;;;;21.92;86.49;100929.59;4952077;28;20057;-89
2023/10/08 07:48:16;;;;;;;30.30;27.13;;;;;;;21.53;80.62;100934.03;4942673;28;20066;-92
2023/10/08 07:50:46;;;;;;;28.40;26.10;;;;;;;21.90;82.50;100926.34;4949995;28;20129;-90
2023/10/08 07:53:18;;;;;;;28.25;25.95;;;;;;;21.96;80.83;100916.31;4950019;28;20152;-91
2023/10/08 07:55:52;;;;;;;27.02;24.92;;;;;;;21.63;93.04;100907.78;4945996;28;20048;-90
2023/10/08 07:58:19;;;;;;;39.78;36.88;;;;;;;22.07;87.23;100904.38;4946187;28;20059;-92
2023/10/08 08:00:52;;;;;;;37.80;35.22;;;;;;;22.21;83.74;100907.34;4948932;28;20059;-91
2023/10/08 08:03:22;;;;;;;;;;;;;;;22.33;73.66;100901.56;4949360;29;20063;-91
2023/10/08 08:05:52;;;;;;;27.60;25.40;;;;;;;22.33;78.34;100904.25;4947594;29;19953;-90
2023/10/08 08:08:27;;;;;;;25.35;23.35;;;;;;;22.16;79.23;100891.09;4947784;28;20657;-92
2023/10/08 08:10:57;;;;;;;25.33;23.25;;;;;;;22.15;70.84;100890.28;4949631;28;20047;-91
2023/10/08 08:13:27;;;;;;;25.05;23.05;;;;;;;21.95;82.83;100890.38;4949297;29;21638;-91
2023/10/08 08:15:58;;;;;;;26.08;23.98;;;;;;;21.99;76.53;100880.63;4949374;29;20058;-91
2023/10/08 08:18:32;;;;;;;24.90;22.90;;;;;;;22.21;89.02;100883.00;4948203;29;20499;-93
2023/10/08 08:21:02;;;;;;;25.90;23.80;;;;;;;22.05;71.55;100884.91;4948774;29;20058;-90
2023/10/08 08:23:33;;;;;;;24.92;22.83;;;;;;;22.29;67.45;100865.34;4947823;29;20398;-94
2023/10/08 08:26:26;;;;;;;26.70;24.60;;;;;;;22.61;66.80;100871.06;4948441;28;20511;-90
2023/10/08 08:28:54;;;;;;;;;;;;;;;22.40;73.73;100875.81;4946145;29;20047;-92
2023/10/08 08:31:22;;;;;;;27.98;25.67;;;;;;;22.39;75.33;100876.09;4946623;29;20016;-92
2023/10/08 08:33:59;;;;;;;27.27;25.08;;;;;;;22.29;73.16;100865.34;4945678;29;20071;-93
2023/10/08 08:36:28;;;;;;;28.75;26.55;;;;;;;22.27;74.89;100864.81;4945734;29;20051;-92
2023/10/08 08:38:56;;;;;;;27.50;25.27;;;;;;;22.34;72.57;100851.78;4946943;29;20043;-93
2023/10/08 08:41:24;;;;;;;26.15;23.95;;;;;;;22.60;73.57;100834.28;4946190;28;20051;-95
2023/10/08 08:43:58;;;;;;;25.08;23.10;;;;;;;22.67;72.90;100843.97;4947310;29;20050;-91
2023/10/08 08:46:35;;;;;;;25.73;23.63;;;;;;;22.73;68.96;100840.13;4943365;29;20051;-94
2023/10/08 08:49:05;;;;;;;26.95;24.75;;;;;;;22.92;70.37;100835.59;4947577;29;20064;-93
2023/10/08 08:51:34;;;;;;;26.80;24.50;;;;;;;22.89;69.80;100832.66;4947957;29;20077;-96
2023/10/08 08:54:06;;;;;;;26.55;24.25;;;;;;;23.04;68.58;100840.66;4944676;29;20090;-96
2023/10/08 08:56:36;;;;;;;26.42;24.23;;;;;;;22.89;69.85;100824.53;4948546;29;20508;-95
2023/10/08 08:59:05;;;;;;;28.42;25.67;;;;;;;23.10;66.48;100831.38;4945806;29;20102;-96
2023/10/08 09:01:35;;;;;;;27.58;24.75;;;;;;;23.03;67.03;100822.81;4952183;29;20570;-96
2023/10/08 09:04:05;;;;;;;25.15;22.77;;;;;;;23.20;67.23;100825.06;4949927;29;20054;-96
2023/10/08 09:06:37;;;;;;;29.00;26.00;;;;;;;23.26;65.63;100810.34;4947628;29;20146;-96
2023/10/08 09:09:21;;;;;;;;;;;;;;;23.34;64.63;100825.19;4947159;29;20054;-94
2023/10/08 09:11:51;;;;;;;25.63;23.23;;;;;;;23.55;62.95;100823.84;4949292;29;19922;-95
2023/10/08 09:14:20;;;;;;;26.50;24.30;;;;;;;23.32;65.53;100814.63;4953635;29;20252;-96
2023/10/08 09:16:50;;;;;;;25.35;23.15;;;;;;;23.38;64.77;100818.88;4951361;29;20511;-96
2023/10/08 09:19:18;;;;;;;25.38;23.17;;;;;;;23.46;61.97;100829.09;4949928;29;20626;-95
2023/10/08 09:22:02;;;;;;;25.17;22.88;;;;;;;23.50;62.48;100815.75;4950157;29;20074;-95
2023/10/08 09:24:30;;;;;;;26.70;23.90;;;;;;;23.55;65.14;100807.56;4945907;29;20110;-96
2023/10/08 09:26:58;;;;;;;25.90;23.60;;;;;;;23.82;61.62;100801.56;4948242;29;20437;-96
2023/10/08 09:29:25;;;;;;;26.58;24.33;;;;;;;24.22;61.04;100805.56;4954754;29;20070;-92
2023/10/08 09:31:56;;;;;;;26.52;24.02;;;;;;;24.75;56.82;100809.91;4947690;28;20048;-93
2023/10/08 09:34:27;;;;;;;25.17;22.77;;;;;;;24.20;59.92;100810.47;4945386;28;20043;-91
2023/10/08 09:36:57;;;;;;;25.40;23.10;;;;;;;24.51;53.92;100790.22;4944123;29;20306;-91
2023/10/08 09:39:26;;;;;;;25.27;23.08;;;;;;;25.23;54.75;100793.25;4948535;29;20043;-91
2023/10/08 09:41:54;;;;;;;25.45;23.35;;;;;;;25.00;56.93;100788.81;4947404;29;20445;-93
2023/10/08 09:44:23;;;;;;;27.30;24.38;;;;;;;25.47;53.43;100790.31;4948644;29;20047;-92
2023/10/08 09:46:54;;;;;;;26.20;24.00;;;;;;;25.41;52.33;100785.28;4943362;29;20591;-91
2023/10/08 09:49:42;;;;;;;27.77;25.48;;;;;;;25.80;51.37;100777.34;4948930;29;20137;-91
2023/10/08 09:52:12;;;;;;;27.05;24.70;;;;;;;25.27;53.48;100767.09;4943564;29;20349;-92
2023/10/08 09:54:44;;;;;;;28.23;25.83;;;;;;;25.94;49.44;100758.31;4946724;29;20057;-92
2023/10/08 09:57:12;;;;;;;28.17;25.77;;;;;;;25.97;52.53;100746.00;4946679;29;20047;-93
2023/10/08 09:59:41;;;;;;;44.88;30.13;;;;;;;25.31;54.54;100734.66;4944829;29;20066;-92
2023/10/08 10:02:10;;;;;;;28.23;25.85;;;;;;;26.42;45.63;100743.25;4945844;29;20052;-91
2023/10/08 10:04:43;;;;;;;25.50;23.30;;;;;;;26.73;47.79;100754.19;4946190;29;20040;-92
2023/10/08 10:07:14;;;;;;;25.48;23.30;;;;;;;26.60;47.67;100739.53;4948404;29;20142;-92
2023/10/08 10:09:44;;;;;;;27.13;24.83;;;;;;;26.10;48.97;100731.53;4946904;28;20054;-91
2023/10/08 10:12:12;;;;;;;25.77;23.63;;;;;;;26.54;47.36;100734.53;4948957;28;20039;-91
2023/10/08 10:14:43;;;;;;;26.10;23.80;;;;;;;27.36;48.05;100724.91;4950370;28;20062;-92
2023/10/08 10:17:14;;;;;;;26.00;23.80;;;;;;;27.22;45.36;100738.66;4949359;29;20494;-91
2023/10/08 10:19:45;;;;;;;25.85;23.55;;;;;;;26.58;46.49;100728.16;4948129;29;20043;-89
2023/10/08 10:22:16;;;;;;;26.40;24.10;;;;;;;27.36;43.52;100730.38;4945998;29;20090;-91
2023/10/08 10:24:45;;;;;;;28.10;25.52;;;;;;;27.00;47.65;100720.47;4947460;29;20480;-92
2023/10/08 10:27:14;;;;;;;26.30;24.00;;;;;;;26.49;45.43;100721.88;4950064;28;20051;-90
2023/10/08 10:29:43;;;;;;;28.45;25.90;;;;;;;26.10;45.41;100715.19;4949271;29;20527;-91
2023/10/08 10:32:13;;;;;;;27.23;24.83;;;;;;;27.16;47.13;100707.22;4944726;29;20146;-91
2023/10/08 10:34:40;;;;;;;27.00;24.80;;;;;;;27.90;43.69;100698.16;4949693;29;20055;-91
2023/10/08 10:37:18;;;;;;;26.50;24.30;;;;;;;28.57;41.39;100701.38;4939334;29;20536;-92
2023/10/08 10:39:53;;;;;;;25.35;23.15;;;;;;;27.43;42.91;100684.31;4948913;29;20181;-91
2023/10/08 10:42:21;;;;;;;26.20;23.90;;;;;;;27.61;44.42;100704.22;4948278;28;20051;-91
2023/10/08 10:44:50;;;;;;;27.20;24.80;;;;;;;27.57;44.23;100690.44;4948412;28;20054;-91
2023/10/08 10:47:27;;;;;;;25.83;23.63;;;;;;;26.76;47.01;100687.38;4945705;29;20048;-91
2023/10/08 10:50:16;;;;;;;27.33;25.13;;;;;;;27.66;46.45;100679.53;4944885;29;20055;-92
2023/10/08 10:52:44;;;;;;;25.98;23.88;;;;;;;28.18;44.16;100662.28;4949061;29;20138;-93
2023/10/08 10:55:23;;;;;;;26.30;24.10;;;;;;;26.70;47.66;100679.34;4950158;29;20055;-93
2023/10/08 10:57:54;;;;;;;25.65;23.48;;;;;;;26.98;46.88;100667.41;4949248;28;20078;-91
2023/10/08 11:00:47;;;;;;;28.23;25.42;;;;;;;27.10;46.84;100662.91;4949450;29;20051;-91
2023/10/08 11:03:16;;;;;;;31.13;26.85;;;;;;;26.77;46.98;100657.06;4948744;29;20095;-89
2023/10/08 11:05:49;;;;;;;26.65;23.90;;;;;;;25.39;53.38;100662.44;4950784;29;20119;-92
2023/10/08 11:08:18;;;;;;;25.98;23.85;;;;;;;26.15;52.91;100668.00;4948583;29;20043;-91
2023/10/08 11:10:50;;;;;;;25.40;23.20;;;;;;;24.97;57.12;100662.53;4947194;28;20062;-90
2023/10/08 11:13:19;;;;;;;25.95;23.85;;;;;;;26.45;54.94;100661.75;4951190;28;20051;-91
2023/10/08 11:15:49;;;;;;;25.73;23.63;;;;;;;25.27;57.17;100666.53;4947624;29;20150;-91
2023/10/08 11:18:18;;;;;;;25.90;23.60;;;;;;;26.03;54.65;100650.34;4950528;28;20157;-91
2023/10/08 11:20:46;;;;;;;26.27;23.98;;;;;;;25.83;55.29;100636.44;4949229;28;20043;-91
2023/10/08 11:23:29;;;;;;;26.20;23.85;;;;;;;27.21;50.38;100625.28;4948578;29;20055;-91
2023/10/08 11:26:02;;;;;;;27.02;24.65;;;;;;;26.81;51.06;100630.00;4950682;28;20435;-92
2023/10/08 11:28:29;;;;;;;26.45;24.35;;;;;;;26.43;53.21;100625.84;4948062;29;20043;-90
2023/10/08 11:30:59;;;;;;;24.65;22.20;;;;;;;27.14;49.88;100619.47;4944671;29;20049;-91
2023/10/08 11:33:27;;;;;;;25.17;23.08;;;;;;;27.92;48.25;100616.72;4947147;28;20138;-92
2023/10/08 11:36:01;;;;;;;24.70;22.70;;;;;;;27.89;48.33;100620.13;4948490;28;20051;-91
2023/10/08 11:38:38;;;;;;;27.05;24.95;;;;;;;28.45;46.81;100617.38;4948374;28;20039;-91
2023/10/08 11:41:20;;;;;;;26.05;23.85;;;;;;;27.89;47.92;100619.31;4945452;28;20534;-92
2023/10/08 11:43:53;;;;;;;27.77;25.35;;;;;;;28.09;46.26;100600.31;4945635;29;20086;-91
2023/10/08 11:46:22;;;;;;;27.05;24.95;;;;;;;27.44;49.31;100604.09;4940150;28;20051;-92
2023/10/08 11:48:50;;;;;;;27.17;24.27;;;;;;;27.87;47.29;100600.56;4945097;29;20043;-91
2023/10/08 11:51:17;;;;;;;24.92;22.80;;;;;;;27.70;48.26;100606.81;4939812;29;20062;-92
2023/10/08 11:53:45;;;;;;;25.17;23.02;;;;;;;28.42;46.57;100610.66;4945480;29;20062;-90
2023/10/08 11:56:14;;;;;;;27.02;24.88;;;;;;;27.68;47.96;100584.50;4945726;28;20087;-91
2023/10/08 11:58:44;;;;;;;23.63;21.63;;;;;;;27.88;47.65;100604.88;4942377;29;20059;-91
2023/10/08 12:01:15;;;;;;;26.05;23.95;;;;;;;27.51;50.26;100584.56;4943607;29;20059;-91
2023/10/08 12:03:43;;;;;;;26.85;24.75;;;;;;;28.34;46.98;100589.59;4945525;29;20059;-90
2023/10/08 12:06:15;;;;;;;25.88;23.77;;;;;;;27.74;47.98;100579.69;4950718;28;20059;-90
2023/10/08 12:08:44;;;;;;;25.63;23.33;;;;;;;27.63;48.16;100588.22;4947726;29;20058;-91
2023/10/08 12:11:14;;;;;;;27.17;24.98;;;;;;;27.42;49.77;100586.50;4942797;29;20984;-92
2023/10/08 12:13:44;;;;;;;33.28;30.88;;;;;;;27.38;51.45;100572.66;4949167;28;20047;-91
2023/10/08 12:16:18;;;;;;;35.17;32.78;;;;;;;27.99;49.82;100597.13;4938308;28;20121;-91
2023/10/08 12:18:48;;;;;;;33.70;31.38;;;;;;;25.75;55.90;100573.50;4943659;28;20066;-91
2023/10/08 12:21:17;;;;;;;32.05;29.80;;;;;;;26.90;52.80;100577.16;4948241;28;20136;-91
2023/10/08 12:23:46;;;;;;;35.20;32.75;;;;;;;26.72;52.68;100572.81;4947102;28;20055;-90
2023/10/08 12:26:18;;;;;;;33.15;30.85;;;;;;;26.52;54.35;100546.16;4953749;28;20731;-91
2023/10/08 12:28:47;;;;;;;34.00;31.60;;;;;;;27.35;51.53;100573.31;4958455;28;20141;-90
2023/10/08 12:31:15;;;;;;;34.70;32.30;;;;;;;26.92;51.86;100561.25;4958262;28;20055;-91
2023/10/08 12:33:44;;;;;;;32.47;30.20;;;;;;;26.84;52.04;100550.34;4952255;28;20133;-91
2023/10/08 12:36:12;;;;;;;35.70;33.30;;;;;;;27.08;51.97;100555.34;4949974;28;20554;-90
2023/10/08 12:38:41;;;;;;;38.28;35.67;;;;;;;27.38;51.37;100562.59;4954653;28;20116;-90
2023/10/08 12:41:18;;;;;;;35.72;33.13;;;;;;;26.67;53.14;100570.22;4943236;28;20051;-90
2023/10/08 12:43:52;;;;;;;36.58;34.03;;;;;;;27.64;50.13;100564.47;4945323;29;20062;-90
2023/10/08 12:46:23;;;;;;;37.08;34.47;;;;;;;27.70;50.01;100565.09;4944172;28;20596;-89
2023/10/08 12:48:58;;;;;;;39.05;36.42;;;;;;;26.99;52.42;100560.81;4946432;29;20182;-90
2023/10/08 12:51:32;;;;;;;39.30;36.50;;;;;;;27.02;52.25;100570.25;4941075;29;20055;-90
2023/10/08 12:54:03;;;;;;;35.90;33.40;;;;;;;27.20;50.76;100555.53;4946698;29;20059;-91
2023/10/08 12:56:48;;;;;;;36.28;33.78;;;;;;;26.35;53.05;100558.56;4939875;28;20073;-90
2023/10/08 12:59:51;;;;;;;;;;;;;;;;;;;;;
2023/10/08 13:03:05;;;;;;;;;;;;;;;;;;;;;
2023/10/08 13:06:14;;;;;;;35.28;32.83;;;;;;;26.00;55.31;100577.50;4934171;28;20055;-90
2023/10/08 13:09:09;;;;;;;38.67;36.13;;;;;;;25.40;59.44;100564.28;4939378;28;20051;-90
2023/10/08 13:12:02;;;;;;;37.97;35.33;;;;;;;25.72;58.34;100551.53;4951753;29;20056;-91
2023/10/08 13:14:50;;;;;;;35.80;33.22;;;;;;;26.93;53.62;100568.34;4951416;28;20062;-90
2023/10/08 13:17:52;;;;;;;37.60;34.90;;;;;;;26.60;53.79;100562.53;4953826;29;20142;-91
2023/10/08 13:20:44;;;;;;;37.05;34.35;;;;;;;26.34;54.45;100575.22;4952179;28;20130;-90
2023/10/08 13:23:44;;;;;;;40.35;35.63;;;;;;;25.75;55.49;100578.94;4956317;29;20055;-92
2023/10/08 13:26:51;;;;;;;36.15;33.45;;;;;;;25.10;61.67;100577.47;4949369;28;20047;-91
2023/10/08 13:29:41;;;;;;;38.70;35.85;;;;;;;25.63;55.61;100570.53;4937416;29;20139;-90
2023/10/08 13:35:49;;;;;;;32.10;29.70;;;;;;;24.92;62.30;100572.97;4939202;28;20142;-92
2023/10/08 13:38:19;;;;;;;27.88;25.48;;;;;;;25.35;59.00;100578.81;4949439;28;20146;-89
2023/10/08 13:41:03;;;;;;;25.58;23.48;;;;;;;25.15;61.98;100578.50;4949712;28;20048;-90
2023/10/08 13:43:34;;;;;;;24.80;22.70;;;;;;;25.52;57.81;100569.97;4942640;29;20051;-90
2023/10/08 13:46:06;;;;;;;25.92;23.73;;;;;;;25.10;60.38;100561.16;4954806;29;20100;-91
2023/10/08 13:48:35;;;;;;;26.77;24.58;;;;;;;24.86;62.29;100576.91;4958584;28;20047;-92
2023/10/08 13:51:03;;;;;;;27.40;25.20;;;;;;;25.61;57.63;100574.69;4950679;29;20047;-90
2023/10/08 13:53:32;;;;;;;27.30;23.50;;;;;;;24.72;64.91;100574.25;4954939;28;20864;-90
2023/10/08 13:56:20;;;;;;;26.38;24.35;;;;;;;25.12;63.12;100574.44;4955110;28;20082;-91
2023/10/08 13:59:11;;;;;;;28.60;26.27;;;;;;;24.99;64.11;100570.63;4954915;28;20059;-90
2023/10/08 14:02:14;;;;;;;27.73;25.52;;;;;;;25.15;63.15;100581.22;4953629;29;20539;-91
2023/10/08 14:04:43;;;;;;;28.38;26.23;;;;;;;25.17;63.21;100570.81;4960294;28;20126;-92
2023/10/08 14:07:16;;;;;;;28.45;25.95;;;;;;;24.71;68.90;100588.13;4951036;28;20371;-92
2023/10/08 14:09:45;;;;;;;28.95;26.42;;;;;;;24.41;70.30;100590.31;4954798;28;20511;-91
2023/10/08 14:13:04;;;;;;;37.65;25.65;;;;;;;24.38;72.17;100590.91;4937771;29;20055;-92
2023/10/08 14:31:59;;;;;;;28.73;26.23;;;;;;;24.82;69.10;100616.66;4958589;28;20059;-90
2023/10/08 14:44:14;;;;;;;27.05;23.58;;;;;;;23.92;80.30;100632.44;4946276;29;20542;-90
2023/10/08 14:46:56;;;;;;;23.90;22.00;;;;;;;24.48;74.25;100644.22;4953790;29;20051;-89
2023/10/08 14:49:54;;;;;;;25.08;23.08;;;;;;;24.07;77.14;100628.66;4948242;29;20170;-89
2023/10/08 14:52:41;;;;;;;23.52;21.73;;;;;;;23.79;80.95;100650.28;4946747;28;20138;-89
2023/10/08 14:55:38;;;;;;;25.10;22.73;;;;;;;23.93;77.83;100643.00;4948213;29;20500;-89
2023/10/08 14:58:20;;;;;;;24.90;23.00;;;;;;;23.98;80.52;100644.81;4947153;28;20055;-90
2023/10/08 15:01:13;;;;;;;25.33;23.02;;;;;;;24.10;76.54;100657.91;4938855;29;20066;-89
2023/10/08 15:07:02;;;;;;;24.27;22.58;;;;;;;24.31;71.30;100647.50;4943643;29;20052;-89
2023/10/08 15:09:49;;;;;;;22.95;21.25;;;;;;;24.32;74.69;100659.97;4948087;29;20135;-90
2023/10/08 15:12:34;;;;;;;22.48;20.67;;;;;;;24.37;71.09;100668.00;4943253;29;20492;-89
2023/10/08 15:15:13;;;;;;;23.20;21.50;;;;;;;24.03;76.16;100666.44;4951496;29;20530;-89
2023/10/08 15:17:56;;;;;;;23.00;21.10;;;;;;;24.04;75.50;100667.25;4954293;29;20062;-91
2023/10/08 15:20:23;;;;;;;;;;;;;;;23.80;77.41;100665.44;4948916;29;20063;-91
2023/10/08 15:22:50;;;;;;;22.10;20.30;;;;;;;23.80;77.64;100680.91;4954666;29;20307;-90
2023/10/08 15:25:19;;;;;;;21.23;19.63;;;;;;;24.10;74.97;100682.31;4944847;29;20582;-91
2023/10/08 15:27:49;;;;;;;22.00;20.30;;;;;;;23.82;81.07;100689.56;4953815;28;20163;-90
2023/10/08 15:30:25;;;;;;;23.67;21.98;;;;;;;23.85;80.16;100692.50;4948216;28;20054;-91
2023/10/08 15:32:52;;;;;;;22.00;20.40;;;;;;;23.88;78.70;100694.63;4934461;29;20146;-91
2023/10/08 15:35:30;;;;;;;22.13;20.52;;;;;;;23.66;81.09;100684.34;4946092;29;20143;-91
2023/10/08 15:38:32;;;;;;;23.48;21.85;;;;;;;23.79;78.07;100688.25;4948810;29;20039;-91
2023/10/08 15:41:00;;;;;;;24.00;22.30;;;;;;;23.87;77.67;100701.13;4944276;29;20296;-90
2023/10/08 15:43:27;;;;;;;22.98;21.45;;;;;;;23.42;84.33;100700.69;4953861;29;20047;-90
2023/10/08 15:46:05;;;;;;;25.20;23.50;;;;;;;23.62;81.77;100707.72;4952298;29;20109;-90
2023/10/08 15:48:32;;;;;;;24.30;22.80;;;;;;;23.18;90.54;100708.88;4936428;29;20734;-90
2023/10/08 15:51:01;;;;;;;23.63;22.02;;;;;;;23.51;84.79;100726.03;4950098;29;20063;-91
2023/10/08 15:53:34;;;;;;;25.63;23.40;;;;;;;23.59;86.55;100726.47;4947192;28;20059;-90
2023/10/08 15:56:11;;;;;;;24.58;22.88;;;;;;;23.45;89.95;100724.50;4949273;29;20066;-90
2023/10/08 15:58:49;;;;;;;25.00;23.10;;;;;;;23.42;89.45;100726.97;4939343;29;20040;-91
2023/10/08 16:01:19;;;;;;;25.55;23.75;;;;;;;23.31;92.28;100739.84;4950334;28;20043;-90